createdAt,value
2023-05-01T00:01:17.769Z,22.00
2023-05-01T00:06:22.198Z,20.00
2023-05-01T00:11:24.967Z,22.30
2023-05-01T00:16:27.756Z,17.50
2023-05-01T00:21:31.114Z,17.30
2023-05-01T00:26:33.894Z,22.20
2023-05-01T00:31:36.859Z,23.60
2023-05-01T00:36:40.412Z,17.30
2023-05-01T00:41:43.225Z,20.30
2023-05-01T00:46:46.125Z,17.00
2023-05-01T00:51:53.392Z,19.30
2023-05-01T00:56:56.537Z,17.10
2023-05-01T01:01:59.565Z,14.80
2023-05-01T01:07:10.652Z,17.60
2023-05-01T01:12:27.573Z,16.00
2023-05-01T01:17:42.449Z,17.00
2023-05-01T01:22:53.540Z,12.30
2023-05-01T01:28:11.797Z,12.80
2023-05-01T01:33:24.098Z,9.40
2023-05-01T01:38:36.528Z,15.70
2023-05-01T01:43:44.117Z,14.00
2023-05-01T01:48:51.560Z,10.00
2023-05-01T01:53:58.802Z,10.20
2023-05-01T01:59:04.583Z,13.30
2023-05-01T02:04:08.939Z,14.00
2023-05-01T02:09:12.929Z,11.80
2023-05-01T02:14:18.507Z,7.70
2023-05-01T02:19:21.853Z,9.60
2023-05-01T02:24:25.503Z,9.70
2023-05-01T02:29:28.374Z,8.30
2023-05-01T02:34:34.847Z,8.30
2023-05-01T02:39:38.711Z,8.20
2023-05-01T02:45:11.671Z,9.00
2023-05-01T02:50:16.318Z,12.80
2023-05-01T02:55:19.675Z,13.60
2023-05-01T03:00:23.613Z,10.00
2023-05-01T03:05:27.023Z,20.00
2023-05-01T03:10:29.768Z,23.40
2023-05-01T03:15:32.576Z,24.00
2023-05-01T03:20:35.580Z,23.20
2023-05-01T03:25:38.328Z,18.40
2023-05-01T03:30:41.028Z,14.10
2023-05-01T03:35:44.434Z,12.30
2023-05-01T03:40:47.498Z,19.50
2023-05-01T03:45:51.450Z,16.90
2023-05-01T03:50:54.229Z,17.20
2023-05-01T03:55:57.560Z,10.00
2023-05-01T04:01:01.085Z,11.20
2023-05-01T04:06:04.189Z,12.10
2023-05-01T04:11:07.610Z,13.40
2023-05-01T04:16:10.592Z,14.40
2023-05-01T04:21:14.736Z,11.20
2023-05-01T04:26:17.668Z,15.30
2023-05-01T04:31:20.552Z,12.30
2023-05-01T04:36:23.535Z,10.30
2023-05-01T04:41:26.357Z,7.70
2023-05-01T04:46:29.273Z,9.90
2023-05-01T04:51:32.245Z,9.30
2023-05-01T04:56:35.162Z,9.60
2023-05-01T05:01:37.997Z,9.10
2023-05-01T05:06:40.822Z,8.60
2023-05-01T05:11:43.891Z,13.80
2023-05-01T05:16:47.003Z,7.90
2023-05-01T05:21:49.868Z,14.10
2023-05-01T05:26:52.785Z,7.60
2023-05-01T05:31:57.221Z,6.70
2023-05-01T05:36:59.964Z,6.80
2023-05-01T05:42:04.241Z,8.20
2023-05-01T05:47:07.282Z,8.90
2023-05-01T05:52:10.084Z,6.20
2023-05-01T05:57:13.074Z,6.90
2023-05-01T06:02:16.032Z,5.80
2023-05-01T06:07:18.899Z,6.80
2023-05-01T06:12:21.793Z,7.20
2023-05-01T06:17:25.621Z,6.00
2023-05-01T06:22:28.440Z,5.10
2023-05-01T06:27:31.194Z,6.90
2023-05-01T06:32:33.952Z,6.20
2023-05-01T06:37:38.511Z,4.70
2023-05-01T06:42:42.224Z,7.90
2023-05-01T06:47:45.127Z,6.10
2023-05-01T06:52:48.010Z,5.70
2023-05-01T06:57:50.894Z,7.20
2023-05-01T07:02:53.841Z,5.80
2023-05-01T07:08:01.170Z,7.40
2023-05-01T07:13:04.527Z,5.20
2023-05-01T07:18:07.345Z,5.10
2023-05-01T07:23:10.439Z,6.00
2023-05-01T07:28:13.228Z,5.10
2023-05-01T07:33:16.753Z,6.30
2023-05-01T07:38:19.702Z,5.60
2023-05-01T07:43:23.222Z,3.60
2023-05-01T07:48:28.449Z,4.70
2023-05-01T07:53:31.957Z,5.40
2023-05-01T07:58:36.442Z,5.60
2023-05-01T08:03:39.449Z,7.60
2023-05-01T08:08:42.418Z,5.70
2023-05-01T08:13:45.329Z,4.60
2023-05-01T08:18:48.086Z,6.90
2023-05-01T08:23:51.431Z,5.60
2023-05-01T08:28:54.268Z,4.70
2023-05-01T08:33:57.658Z,4.90
2023-05-01T08:39:00.479Z,4.40
2023-05-01T08:44:04.438Z,6.30
2023-05-01T08:49:11.617Z,4.50
2023-05-01T08:54:15.928Z,4.20
2023-05-01T08:59:20.706Z,5.60
2023-05-01T09:04:23.914Z,7.50
2023-05-01T09:09:28.007Z,4.70
2023-05-01T09:14:32.048Z,4.90
2023-05-01T09:19:34.920Z,3.80
2023-05-01T09:24:37.658Z,3.70
2023-05-01T09:29:46.110Z,4.70
2023-05-01T09:34:50.711Z,4.20
2023-05-01T09:40:11.382Z,4.90
2023-05-01T09:45:15.304Z,5.10
2023-05-01T09:50:35.000Z,5.60
2023-05-01T09:55:37.978Z,4.10
2023-05-01T10:00:50.082Z,3.40
2023-05-01T10:05:53.103Z,4.50
2023-05-01T10:11:05.377Z,4.80
2023-05-01T10:16:27.927Z,4.00
2023-05-01T10:21:34.523Z,3.90
2023-05-01T10:26:38.078Z,3.90
2023-05-01T10:31:42.703Z,4.60
2023-05-01T10:36:53.700Z,4.60
2023-05-01T10:41:59.722Z,4.20
2023-05-01T10:47:24.811Z,6.50
2023-05-01T10:52:27.901Z,4.50
2023-05-01T10:57:44.592Z,3.20
2023-05-01T11:02:47.386Z,2.80
2023-05-01T11:08:29.192Z,4.20
2023-05-01T11:14:04.369Z,3.90
2023-05-01T11:19:23.336Z,2.90
2023-05-01T11:24:33.153Z,4.50
2023-05-01T11:29:37.716Z,3.20
2023-05-01T11:34:40.853Z,4.40
2023-05-01T11:39:51.127Z,4.20
2023-05-01T11:45:08.008Z,3.80
2023-05-01T11:50:11.714Z,3.80
2023-05-01T11:55:14.617Z,3.40
2023-05-01T12:00:27.946Z,3.40
2023-05-01T12:05:32.148Z,4.80
2023-05-01T12:10:36.359Z,5.20
2023-05-01T12:15:50.809Z,4.60
2023-05-01T12:20:55.437Z,3.40
2023-05-01T12:25:58.399Z,3.90
2023-05-01T12:31:05.173Z,6.40
2023-05-01T12:36:13.013Z,3.30
2023-05-01T12:41:15.800Z,3.30
2023-05-01T12:46:18.707Z,4.00
2023-05-01T12:51:22.989Z,3.20
2023-05-01T12:56:26.027Z,10.80
2023-05-01T13:01:29.319Z,4.20
2023-05-01T13:06:35.555Z,3.30
2023-05-01T13:11:39.007Z,3.40
2023-05-01T13:16:49.840Z,4.60
2023-05-01T13:21:52.675Z,4.90
2023-05-01T13:27:02.377Z,6.10
2023-05-01T13:32:11.088Z,3.90
2023-05-01T13:37:14.114Z,3.70
2023-05-01T13:42:27.253Z,3.00
2023-05-01T13:47:30.105Z,5.10
2023-05-01T13:52:33.059Z,4.60
2023-05-01T13:57:38.559Z,3.30
2023-05-01T14:02:48.774Z,5.50
2023-05-01T14:07:57.199Z,3.90
2023-05-01T14:13:00.641Z,4.20
2023-05-01T14:18:07.551Z,3.60
2023-05-01T14:23:10.772Z,5.90
2023-05-01T14:28:14.812Z,3.70
2023-05-01T14:33:17.756Z,4.90
2023-05-01T14:38:25.850Z,5.00
2023-05-01T14:43:28.721Z,4.30
2023-05-01T14:48:36.014Z,4.20
2023-05-01T14:53:42.629Z,6.80
2023-05-01T14:58:46.968Z,6.70
2023-05-01T15:03:50.056Z,6.50
2023-05-01T15:08:53.114Z,4.60
2023-05-01T15:13:56.336Z,5.10
2023-05-01T15:18:59.610Z,3.20
2023-05-01T15:24:02.941Z,6.00
2023-05-01T15:29:05.678Z,5.70
2023-05-01T15:34:08.475Z,3.70
2023-05-01T15:39:12.109Z,3.70
2023-05-01T15:44:15.205Z,4.80
2023-05-01T15:49:18.677Z,6.60
2023-05-01T15:54:21.891Z,4.50
2023-05-01T15:59:25.672Z,6.30
2023-05-01T16:04:28.520Z,5.20
2023-05-01T16:09:32.433Z,7.10
2023-05-01T16:14:42.225Z,6.30
2023-05-01T16:19:45.970Z,4.40
2023-05-01T16:24:49.234Z,5.00
2023-05-01T16:29:52.347Z,5.70
2023-05-01T16:34:55.064Z,5.50
2023-05-01T16:39:59.649Z,4.70
2023-05-01T16:45:02.949Z,8.20
2023-05-01T16:50:09.824Z,7.20
2023-05-01T16:55:13.279Z,6.10
2023-05-01T17:00:17.139Z,5.30
2023-05-01T17:05:20.499Z,8.00
2023-05-01T17:10:23.278Z,6.20
2023-05-01T17:15:26.305Z,5.20
2023-05-01T17:20:29.067Z,9.70
2023-05-01T17:25:32.077Z,10.00
2023-05-01T17:30:35.446Z,6.80
2023-05-01T17:35:38.295Z,11.90
2023-05-01T17:40:41.306Z,25.40
2023-05-01T17:45:45.685Z,24.70
2023-05-01T17:50:49.161Z,41.30
2023-05-01T17:55:51.999Z,35.00
2023-05-01T18:00:55.899Z,38.20
2023-05-01T18:06:04.574Z,28.40
2023-05-01T18:11:07.532Z,20.00
2023-05-01T18:16:11.325Z,16.80
2023-05-01T18:21:14.782Z,13.30
2023-05-01T18:26:17.881Z,14.00
2023-05-01T18:31:20.916Z,13.70
2023-05-01T18:36:24.204Z,14.70
2023-05-01T18:41:27.419Z,24.90
2023-05-01T18:46:30.362Z,22.50
2023-05-01T18:51:33.435Z,21.30
2023-05-01T18:56:36.230Z,17.30
2023-05-01T19:01:39.093Z,21.00
2023-05-01T19:06:41.949Z,14.50
2023-05-01T19:11:44.938Z,15.90
2023-05-01T19:16:47.914Z,15.90
2023-05-01T19:21:51.213Z,13.60
2023-05-01T19:26:54.054Z,12.30
2023-05-01T19:31:57.034Z,12.00
2023-05-01T19:37:02.084Z,10.80
2023-05-01T19:42:05.006Z,7.00
2023-05-01T19:47:07.832Z,8.20
2023-05-01T19:52:10.678Z,6.70
2023-05-01T19:57:13.462Z,7.60
2023-05-01T20:02:16.485Z,8.00
2023-05-01T20:07:19.341Z,6.90
2023-05-01T20:12:25.117Z,8.00
2023-05-01T20:17:28.026Z,7.70
2023-05-01T20:22:30.773Z,8.60
2023-05-01T20:27:33.729Z,7.00
2023-05-01T20:37:44.862Z,6.80
2023-05-01T20:42:47.766Z,7.70
2023-05-01T20:47:50.582Z,9.60
2023-05-01T20:52:55.681Z,9.00
2023-05-01T20:57:58.759Z,8.20
2023-05-01T21:03:01.957Z,8.20
2023-05-01T21:08:04.943Z,8.60
2023-05-01T21:13:07.673Z,8.60
2023-05-01T21:18:14.337Z,10.80
2023-05-01T21:23:17.899Z,10.10
2023-05-01T21:28:20.865Z,9.80
2023-05-01T21:33:23.687Z,11.70
2023-05-01T21:38:26.786Z,9.90
2023-05-01T21:43:33.795Z,8.10
2023-05-01T21:48:36.586Z,7.20
2023-05-01T21:53:41.120Z,8.40
2023-05-01T21:58:44.007Z,8.50
2023-05-01T22:03:46.909Z,8.50
2023-05-01T22:08:53.215Z,9.60
2023-05-01T22:13:56.946Z,6.80
2023-05-01T22:19:00.596Z,7.10
2023-05-01T22:24:03.605Z,12.70
2023-05-01T22:29:06.981Z,11.10
2023-05-01T22:34:10.049Z,9.80
2023-05-01T22:39:12.799Z,11.00
2023-05-01T22:44:15.993Z,8.20
2023-05-01T22:49:19.008Z,10.00
2023-05-01T22:54:22.230Z,12.80
2023-05-01T22:59:26.043Z,10.30
2023-05-01T23:04:29.427Z,11.70
2023-05-01T23:09:32.563Z,12.80
2023-05-01T23:14:41.188Z,7.20
2023-05-01T23:19:45.620Z,9.90
2023-05-01T23:24:49.437Z,13.90
2023-05-01T23:29:54.896Z,8.30
2023-05-01T23:35:05.126Z,10.20
2023-05-01T23:40:09.642Z,11.70
2023-05-01T23:45:12.974Z,10.70
2023-05-01T23:50:16.197Z,9.60
2023-05-01T23:55:19.083Z,9.10
